createdAt,value
2019-05-10T00:04:37.222Z,13.00
2019-05-10T00:10:58.613Z,12.60
2019-05-10T00:17:14.035Z,11.90
2019-05-10T00:23:20.120Z,11.60
2019-05-10T00:29:27.796Z,11.40
2019-05-10T00:35:45.339Z,11.30
2019-05-10T00:42:00.403Z,11.20
2019-05-10T00:48:11.094Z,11.10
2019-05-10T00:54:34.721Z,11.10
2019-05-10T01:00:33.682Z,11.10
2019-05-10T01:06:38.547Z,11.20
2019-05-10T01:12:47.282Z,11.10
2019-05-10T01:18:52.289Z,10.90
2019-05-10T01:24:57.268Z,10.80
2019-05-10T01:31:19.213Z,10.70
2019-05-10T01:37:34.075Z,10.70
2019-05-10T01:43:39.655Z,10.70
2019-05-10T01:49:54.797Z,10.80
2019-05-10T01:56:08.235Z,10.70
2019-05-10T02:02:31.776Z,10.60
2019-05-10T02:08:47.033Z,10.60
2019-05-10T02:15:02.700Z,10.60
2019-05-10T02:21:21.844Z,10.60
2019-05-10T02:27:26.827Z,10.60
2019-05-10T02:34:13.179Z,10.50
2019-05-10T02:41:20.034Z,10.60
2019-05-10T02:54:21.725Z,10.50
2019-05-10T03:00:56.556Z,10.50
2019-05-10T03:07:25.317Z,10.50
2019-05-10T03:14:04.455Z,10.50
2019-05-10T03:20:44.559Z,10.40
2019-05-10T03:27:09.632Z,10.30
2019-05-10T03:33:30.084Z,10.20
2019-05-10T03:40:05.028Z,10.20
2019-05-10T03:46:46.254Z,10.30
2019-05-10T03:53:03.673Z,10.20
2019-05-10T03:59:21.910Z,10.10
2019-05-10T04:06:36.702Z,10.00
2019-05-10T04:13:00.364Z,10.10
2019-05-10T04:19:04.586Z,10.10
2019-05-10T04:25:09.271Z,10.20
2019-05-10T04:31:13.544Z,10.20
2019-05-10T04:37:17.777Z,10.20
2019-05-10T04:43:22.024Z,10.20
2019-05-10T04:49:26.467Z,10.20
2019-05-10T04:55:30.753Z,10.20
2019-05-10T05:01:34.973Z,10.10
2019-05-10T05:07:39.177Z,10.20
2019-05-10T05:13:43.507Z,10.40
2019-05-10T05:19:47.819Z,10.60
2019-05-10T05:25:52.055Z,10.30
2019-05-10T05:32:01.184Z,11.10
2019-05-10T05:38:02.201Z,11.30
2019-05-10T05:44:06.449Z,11.30
2019-05-10T05:50:10.677Z,11.20
2019-05-10T05:56:14.983Z,11.20
2019-05-10T06:02:19.255Z,10.90
2019-05-10T06:08:25.110Z,11.00
2019-05-10T06:14:29.575Z,12.20
2019-05-10T06:20:38.277Z,12.00
2019-05-10T06:26:39.978Z,11.30
2019-05-10T06:32:44.346Z,11.80
2019-05-10T06:38:48.609Z,11.70
2019-05-10T06:44:52.935Z,12.10
2019-05-10T06:50:57.153Z,12.30
2019-05-10T06:57:04.135Z,11.60
2019-05-10T07:03:08.487Z,12.40
2019-05-10T07:09:12.703Z,14.10
2019-05-10T07:15:16.949Z,14.40
2019-05-10T07:21:21.226Z,14.00
2019-05-10T07:27:25.446Z,13.30
2019-05-10T07:33:32.126Z,13.60
2019-05-10T07:39:35.866Z,14.40
2019-05-10T07:45:40.068Z,14.30
2019-05-10T07:51:44.416Z,14.80
2019-05-10T07:57:48.584Z,14.90
2019-05-10T08:03:52.879Z,15.50
2019-05-10T08:09:59.306Z,16.00
2019-05-10T08:16:05.336Z,16.50
2019-05-10T08:22:09.389Z,16.10
2019-05-10T08:28:14.100Z,16.50
2019-05-10T08:34:18.688Z,17.00
2019-05-10T08:40:28.178Z,16.80
2019-05-10T08:46:38.285Z,17.00
2019-05-10T08:52:35.092Z,17.00
2019-05-10T08:58:41.958Z,17.20
2019-05-10T09:04:49.864Z,17.10
2019-05-10T09:10:52.970Z,16.50
2019-05-10T09:17:01.756Z,16.50
2019-05-10T09:23:03.193Z,16.30
2019-05-10T09:29:07.545Z,17.70
2019-05-10T09:35:12.747Z,17.90
2019-05-10T09:41:17.317Z,18.20
2019-05-10T09:47:22.254Z,18.00
2019-05-10T09:53:30.125Z,18.40
2019-05-10T09:59:32.570Z,18.40
2019-05-10T10:05:39.840Z,18.70
2019-05-10T10:11:48.533Z,18.50
2019-05-10T10:17:48.765Z,18.80
2019-05-10T10:23:52.971Z,18.70
2019-05-10T10:29:57.385Z,17.80
2019-05-10T10:36:07.728Z,18.00
2019-05-10T10:42:11.801Z,18.20
2019-05-10T10:48:13.639Z,17.30
2019-05-10T10:54:22.360Z,18.10
2019-05-10T11:00:38.451Z,18.10
2019-05-10T11:06:41.243Z,17.70
2019-05-10T11:12:45.440Z,17.60
2019-05-10T11:18:51.988Z,18.10
2019-05-10T11:25:03.066Z,17.80
2019-05-10T11:31:01.695Z,17.00
2019-05-10T11:37:06.066Z,16.70
2019-05-10T11:43:10.264Z,16.90
2019-05-10T11:49:14.675Z,17.50
2019-05-10T11:55:21.420Z,17.90
2019-05-10T12:01:25.118Z,16.90
2019-05-10T12:07:35.307Z,17.30
2019-05-10T12:13:35.385Z,17.10
2019-05-10T12:19:47.746Z,16.60
2019-05-10T12:25:58.989Z,17.20
2019-05-10T12:31:53.379Z,17.20
2019-05-10T12:37:57.353Z,16.60
2019-05-10T12:44:05.743Z,16.60
2019-05-10T12:50:08.831Z,16.40
2019-05-10T12:56:13.036Z,16.20
2019-05-10T13:02:17.311Z,16.70
2019-05-10T13:08:21.553Z,16.60
2019-05-10T13:14:28.967Z,16.60
2019-05-10T13:20:36.760Z,16.60
2019-05-10T13:26:37.658Z,17.40
2019-05-10T13:32:41.837Z,17.70
2019-05-10T13:38:49.173Z,18.00
2019-05-10T13:44:52.361Z,18.10
2019-05-10T13:50:56.751Z,17.40
2019-05-10T13:57:00.959Z,16.90
2019-05-10T14:03:11.344Z,16.60
2019-05-10T14:09:11.485Z,16.30
2019-05-10T14:15:15.989Z,16.10
2019-05-10T14:21:20.304Z,16.30
2019-05-10T14:27:29.466Z,16.70
2019-05-10T14:33:30.575Z,16.50
2019-05-10T14:39:34.962Z,16.20
2019-05-10T14:45:39.205Z,16.00
2019-05-10T14:51:57.673Z,16.40
2019-05-10T14:57:49.427Z,16.20
2019-05-10T15:03:53.641Z,15.90
2019-05-10T15:10:00.422Z,16.80
2019-05-10T15:16:07.031Z,16.30
2019-05-10T15:22:09.872Z,16.60
2019-05-10T15:28:14.148Z,16.30
2019-05-10T15:34:18.492Z,16.90
2019-05-10T15:40:22.690Z,16.10
2019-05-10T15:46:36.573Z,16.10
2019-05-10T15:52:33.100Z,16.00
2019-05-10T15:58:42.049Z,16.90
2019-05-10T16:04:43.614Z,17.20
2019-05-10T16:10:47.929Z,16.10
2019-05-10T16:16:52.219Z,16.00
2019-05-10T16:22:56.491Z,15.60
2019-05-10T16:29:02.195Z,15.70
2019-05-10T16:35:12.848Z,15.60
2019-05-10T16:41:12.866Z,15.80
2019-05-10T16:47:17.375Z,15.80
2019-05-10T16:53:21.861Z,15.70
2019-05-10T16:59:29.910Z,15.70
2019-05-10T17:05:32.142Z,15.60
2019-05-10T17:11:36.379Z,15.60
2019-05-10T17:17:40.815Z,15.60
2019-05-10T17:23:46.847Z,15.50
2019-05-10T17:29:51.348Z,15.40
2019-05-10T17:36:07.488Z,15.30
2019-05-10T17:42:03.297Z,15.50
2019-05-10T17:48:08.721Z,15.60
2019-05-10T17:54:13.691Z,15.30
2019-05-10T18:00:18.347Z,15.30
2019-05-10T18:06:24.354Z,15.20
2019-05-10T18:12:28.927Z,15.20
2019-05-10T18:18:35.911Z,15.10
2019-05-10T18:24:42.313Z,14.80
2019-05-10T18:30:45.227Z,14.40
2019-05-10T18:36:51.647Z,14.30
2019-05-10T18:42:57.875Z,14.20
2019-05-10T18:49:01.428Z,14.10
2019-05-10T18:55:05.879Z,13.90
2019-05-10T19:01:10.204Z,13.90
2019-05-10T19:07:14.584Z,13.70
2019-05-10T19:13:19.581Z,13.60
2019-05-10T19:19:24.133Z,13.50
2019-05-10T19:25:28.415Z,13.30
2019-05-10T19:31:38.065Z,13.20
2019-05-10T19:37:38.676Z,13.10
2019-05-10T19:43:42.903Z,13.10
2019-05-10T19:49:51.586Z,13.10
2019-05-10T19:55:56.871Z,12.90
2019-05-10T20:01:59.159Z,12.80
2019-05-10T20:08:03.431Z,12.60
2019-05-10T20:14:07.766Z,12.70
2019-05-10T20:20:12.049Z,12.60
2019-05-10T20:26:16.355Z,12.60
2019-05-10T20:32:23.776Z,12.50
2019-05-10T20:38:28.093Z,12.50
2019-05-10T20:44:32.435Z,12.50
2019-05-10T20:50:36.665Z,12.40
2019-05-10T20:56:41.124Z,12.40
2019-05-10T21:02:45.410Z,12.30
2019-05-10T21:08:49.643Z,12.20
2019-05-10T21:14:53.843Z,12.20
2019-05-10T21:20:58.076Z,12.20
2019-05-10T21:27:02.291Z,12.10
2019-05-10T21:33:06.740Z,12.00
2019-05-10T21:39:11.064Z,12.00
2019-05-10T21:45:15.332Z,12.10
2019-05-10T21:51:19.554Z,12.00
2019-05-10T21:57:23.758Z,12.00
2019-05-10T22:03:27.991Z,12.00
2019-05-10T22:09:32.438Z,11.90
2019-05-10T22:15:36.688Z,11.80
2019-05-10T22:21:40.945Z,11.80
2019-05-10T22:27:45.304Z,11.80
2019-05-10T22:33:49.517Z,11.80
2019-05-10T22:39:53.742Z,11.80
2019-05-10T22:45:57.962Z,11.70
2019-05-10T22:52:02.190Z,11.70
2019-05-10T22:58:06.541Z,11.70
2019-05-10T23:04:10.803Z,11.60
2019-05-10T23:10:15.380Z,11.60
2019-05-10T23:16:19.937Z,11.50
2019-05-10T23:22:24.248Z,11.50
2019-05-10T23:28:28.542Z,11.40
2019-05-10T23:34:32.940Z,11.40
2019-05-10T23:40:37.155Z,11.50
2019-05-10T23:46:41.451Z,11.30
2019-05-10T23:52:45.656Z,11.40
2019-05-10T23:58:49.895Z,11.30
